Terminal Aerodrome Forecast
Issued by NWS Topeka, KS

Home | Current Version | Previous Version | Text Only | Print | Product List | Glossary On
Versions: 1 2 3 4 5 6 7 8 9 10 11 12 13 14 15 16 17 18 19
000
FTUS43 KTOP 012300
TAFTOP
TAF
KTOP 012325Z 0200/0224 32019G30KT 4SM -SN BR SCT015 OVC025
     FM020200 33016G24KT P6SM OVC025
     FM020600 32014KT P6SM SCT015 BKN025
     FM020900 32008KT P6SM SCT250
     FM021700 18009KT P6SM BKN150=

USA.gov is the U.S. government's official web portal to all federal, state and local government web resources and services.